Terminal Aerodrome Forecast
Issued by NWS Topeka, KS

Home | Current Version | Previous Version | Text Only | Print | Product List | Glossary Off
Versions: 1 2 3 4 5 6 7 8 9 10 11 12 13 14 15 16 17 18 19 20

000
FTUS43 KTOP 181700
TAFTOP
TAF
KTOP 181725Z 1818/1918 08006KT 1 1/2SM BR OVC009
     FM182100 04003KT 4SM BR OVC011
     FM190100 00000KT 2SM BR OVC008=

USA.gov is the U.S. government's official web portal to all federal, state and local government web resources and services.